Time;durP1;ratioP1;P1;durP2;ratioP2;P2;SDS_P1;SDS_P2;PMS_P1;PMS_P2;Temp;Humidity;BMP_temperature;BMP_pressure;BME280_temperature;BME280_humidity;BME280_pressure;Samples;Min_cycle;Max_cycle;Signal;HPM_P1;HPM_P2
2020/12/08 00:00:26;;;;;;;13.13;8.35;;;;;;;5.78;73.75;99257.84;5033587;28;20049;-60
2020/12/08 00:02:53;;;;;;;12.38;8.60;;;;;;;5.76;73.65;99258.16;5027593;28;20052;-67
2020/12/08 00:05:21;;;;;;;12.65;8.77;;;;;;;5.85;73.30;99252.75;5033486;28;20045;-63
2020/12/08 00:07:48;;;;;;;13.55;8.82;;;;;;;5.87;73.53;99264.97;5030793;28;20049;-63
2020/12/08 00:10:19;;;;;;;13.25;8.55;;;;;;;5.90;72.85;99261.59;5014968;28;20049;-64
2020/12/08 00:12:48;;;;;;;11.75;7.95;;;;;;;5.85;72.48;99264.50;5032874;28;20056;-62
2020/12/08 00:15:15;;;;;;;12.73;8.55;;;;;;;5.86;72.50;99251.63;5031999;28;20053;-62
2020/12/08 00:17:43;;;;;;;12.73;7.75;;;;;;;5.79;72.57;99260.25;5033874;28;20493;-64
2020/12/08 00:20:11;;;;;;;15.32;8.73;;;;;;;5.65;73.42;99256.81;5033179;28;20072;-66
2020/12/08 00:22:38;;;;;;;14.32;9.05;;;;;;;5.69;72.95;99260.53;5034202;28;20057;-67
2020/12/08 00:25:07;;;;;;;13.48;8.00;;;;;;;5.60;73.05;99265.16;5033163;28;20254;-67
2020/12/08 00:27:35;;;;;;;13.23;8.50;;;;;;;5.77;72.70;99256.25;5015554;28;20053;-66
2020/12/08 00:30:08;;;;;;;13.93;8.90;;;;;;;5.77;72.14;99258.97;5032603;28;20062;-66
2020/12/08 00:32:39;;;;;;;15.05;7.85;;;;;;;5.81;72.08;99251.72;5032687;28;20053;-67
2020/12/08 00:35:10;;;;;;;13.88;8.75;;;;;;;5.65;72.22;99243.97;5015505;28;20053;-65
2020/12/08 00:37:41;;;;;;;16.80;9.05;;;;;;;5.52;72.92;99242.19;5014620;28;20053;-65
2020/12/08 00:40:09;;;;;;;13.88;9.05;;;;;;;5.57;72.33;99239.31;5015247;28;20049;-66
2020/12/08 00:42:39;;;;;;;14.10;8.68;;;;;;;5.60;72.78;99238.66;5032641;28;20386;-66
2020/12/08 00:45:11;;;;;;;12.52;8.38;;;;;;;5.62;72.30;99236.44;5016423;28;20046;-63
2020/12/08 00:47:39;;;;;;;13.70;8.68;;;;;;;5.60;72.32;99235.94;5017369;28;20053;-64
2020/12/08 00:50:06;;;;;;;15.02;8.70;;;;;;;5.60;72.66;99230.47;5018254;28;20042;-64
2020/12/08 00:52:33;;;;;;;15.30;9.70;;;;;;;5.70;72.44;99223.94;5016214;28;20045;-64
2020/12/08 00:55:09;;;;;;;17.55;9.30;;;;;;;5.52;73.36;99233.19;5014269;28;20050;-63
2020/12/08 00:57:39;;;;;;;16.95;9.45;;;;;;;5.58;73.09;99226.44;5012734;28;20054;-61
2020/12/08 01:00:09;;;;;;;14.52;9.23;;;;;;;5.63;73.04;99226.31;5014636;28;20507;-66
2020/12/08 01:02:41;;;;;;;14.20;8.85;;;;;;;5.64;73.07;99231.47;5014169;28;20046;-62
2020/12/08 01:05:11;;;;;;;13.70;8.82;;;;;;;5.58;73.13;99238.19;5014550;28;20416;-62
2020/12/08 01:07:40;;;;;;;13.82;9.07;;;;;;;5.46;74.01;99239.91;5013730;28;20053;-62
2020/12/08 01:10:11;;;;;;;14.35;8.70;;;;;;;5.41;74.22;99231.84;5013422;28;20049;-63
2020/12/08 01:12:40;;;;;;;;;;;;;;;5.50;73.98;99238.16;5015272;28;20046;-65
2020/12/08 01:15:09;;;;;;;14.85;8.82;;;;;;;5.51;73.64;99248.75;5012784;28;20280;-67
2020/12/08 01:17:36;;;;;;;13.13;9.07;;;;;;;5.51;73.70;99239.75;5014179;28;20132;-67
2020/12/08 01:20:05;;;;;;;13.38;8.80;;;;;;;5.54;73.51;99239.91;5013307;28;20052;-68
2020/12/08 01:22:34;;;;;;;14.77;9.23;;;;;;;5.61;73.55;99234.81;5014105;28;20405;-69
2020/12/08 01:25:01;;;;;;;13.98;8.80;;;;;;;5.58;72.96;99240.09;5014250;28;20505;-63
2020/12/08 01:27:33;;;;;;;13.18;8.35;;;;;;;5.51;73.13;99242.47;4998698;28;20053;-67
2020/12/08 01:30:00;;;;;;;13.98;8.38;;;;;;;5.66;72.98;99247.53;5014063;28;20121;-68
2020/12/08 01:32:31;;;;;;;16.23;8.95;;;;;;;5.53;72.58;99242.97;5013923;28;20045;-65
2020/12/08 01:34:58;;;;;;;13.30;8.52;;;;;;;5.40;72.89;99249.38;5014797;28;20060;-63
2020/12/08 01:37:25;;;;;;;13.50;8.68;;;;;;;5.25;73.80;99245.13;5030272;28;20054;-62
2020/12/08 01:39:53;;;;;;;17.45;9.25;;;;;;;5.17;74.43;99245.88;5014072;28;20049;-63
2020/12/08 01:42:20;;;;;;;16.00;9.25;;;;;;;5.41;73.87;99242.78;5013325;28;20068;-63
2020/12/08 01:44:48;;;;;;;14.57;8.82;;;;;;;5.33;73.71;99254.47;5012098;28;20046;-64
2020/12/08 01:47:17;;;;;;;17.85;9.82;;;;;;;5.51;73.61;99256.94;5031081;28;20045;-64
2020/12/08 01:49:48;;;;;;;18.38;10.60;;;;;;;5.28;74.22;99254.63;4998475;28;20060;-63
2020/12/08 01:52:19;;;;;;;16.30;10.25;;;;;;;5.45;74.04;99258.22;4998160;28;20050;-63
2020/12/08 01:54:53;;;;;;;14.55;9.38;;;;;;;5.50;73.58;99258.09;5014008;28;20053;-61
2020/12/08 01:57:23;;;;;;;14.60;9.52;;;;;;;5.50;73.49;99263.53;5014189;28;20054;-59
2020/12/08 01:59:55;;;;;;;16.10;10.07;;;;;;;5.18;74.41;99268.50;5014118;28;20052;-63
2020/12/08 02:02:25;;;;;;;15.75;9.77;;;;;;;5.38;74.07;99271.53;5013175;28;20056;-63
2020/12/08 02:04:54;;;;;;;14.82;9.52;;;;;;;5.38;73.73;99277.00;5012937;28;20054;-62
2020/12/08 02:07:21;;;;;;;16.90;10.63;;;;;;;5.08;74.31;99275.06;5031227;28;20097;-63
2020/12/08 02:09:48;;;;;;;17.90;9.98;;;;;;;5.24;73.81;99284.47;5034544;28;20053;-62
2020/12/08 02:12:20;;;;;;;14.05;9.00;;;;;;;5.14;74.04;99286.66;5018322;28;20064;-63
2020/12/08 02:14:48;;;;;;;17.08;10.13;;;;;;;5.12;73.97;99283.41;5017331;28;20049;-62
2020/12/08 02:17:15;;;;;;;18.13;10.18;;;;;;;5.23;73.38;99284.78;5034488;28;20413;-64
2020/12/08 02:19:44;;;;;;;14.77;9.32;;;;;;;5.26;73.06;99284.16;5034150;28;20378;-64
2020/12/08 02:22:12;;;;;;;14.75;9.80;;;;;;;5.16;73.48;99281.69;5035522;28;20053;-63
2020/12/08 02:24:39;;;;;;;16.27;10.00;;;;;;;5.37;72.84;99280.81;5035919;28;20396;-62
2020/12/08 02:27:06;;;;;;;15.05;9.57;;;;;;;4.95;73.75;99286.84;5034388;28;20049;-62
2020/12/08 02:29:33;;;;;;;15.60;10.10;;;;;;;5.00;73.88;99286.72;5017710;28;20050;-62
2020/12/08 02:32:00;;;;;;;17.63;10.43;;;;;;;5.11;73.77;99290.00;5034869;28;20053;-62
2020/12/08 02:34:27;;;;;;;15.65;9.48;;;;;;;5.18;73.90;99291.16;5034238;28;20489;-62
2020/12/08 02:36:57;;;;;;;17.45;10.70;;;;;;;4.99;74.21;99297.94;5039371;28;20053;-64
2020/12/08 02:39:27;;;;;;;15.73;9.95;;;;;;;4.73;75.30;99302.41;5024454;28;20045;-64
2020/12/08 02:41:57;;;;;;;17.90;10.15;;;;;;;5.16;74.63;99300.78;5023874;28;20049;-62
2020/12/08 02:44:23;;;;;;;21.48;11.70;;;;;;;4.76;74.95;99310.75;5039318;28;20049;-62
2020/12/08 02:46:51;;;;;;;17.83;11.90;;;;;;;4.31;77.70;99314.56;5034455;28;20053;-63
2020/12/08 02:49:21;;;;;;;21.38;12.15;;;;;;;4.39;77.71;99314.63;5016683;28;20045;-63
2020/12/08 02:51:48;;;;;;;18.85;11.70;;;;;;;4.19;77.93;99308.81;5016444;28;20042;-62
2020/12/08 02:54:15;;;;;;;19.05;12.00;;;;;;;4.38;78.26;99312.22;5034633;28;20053;-65
2020/12/08 02:56:44;;;;;;;19.30;12.35;;;;;;;4.52;77.15;99312.97;5016500;28;20493;-66
2020/12/08 02:59:22;;;;;;;18.63;11.55;;;;;;;4.34;77.80;99314.75;5016538;28;20053;-65
2020/12/08 03:01:53;;;;;;;18.83;11.77;;;;;;;4.58;77.59;99315.28;5016152;28;20740;-66
2020/12/08 03:04:20;;;;;;;18.42;11.30;;;;;;;4.77;76.51;99312.41;5016017;28;20589;-67
2020/12/08 03:06:47;;;;;;;21.58;11.73;;;;;;;4.44;76.65;99320.00;5017272;28;20509;-64
2020/12/08 03:09:14;;;;;;;18.50;11.27;;;;;;;4.54;76.46;99325.22;5016740;28;20046;-63
2020/12/08 03:11:41;;;;;;;17.70;10.90;;;;;;;4.58;75.66;99320.72;5016452;28;20406;-67
2020/12/08 03:14:16;;;;;;;16.40;11.02;;;;;;;4.62;75.38;99318.19;5017158;28;20397;-64
2020/12/08 03:16:45;;;;;;;17.08;10.65;;;;;;;4.64;75.06;99317.91;5016277;28;20050;-64
2020/12/08 03:19:13;;;;;;;19.50;11.23;;;;;;;4.73;74.84;99324.22;5015017;28;20053;-62
2020/12/08 03:21:40;;;;;;;17.80;10.45;;;;;;;4.65;74.79;99314.88;5015418;28;20053;-62
2020/12/08 03:24:20;;;;;;;17.40;10.90;;;;;;;4.47;76.19;99319.38;5016580;28;20060;-62
2020/12/08 03:26:47;;;;;;;19.92;11.68;;;;;;;4.36;76.17;99326.16;5016758;28;20073;-62
2020/12/08 03:29:14;;;;;;;19.92;12.05;;;;;;;4.15;77.82;99322.25;5016695;28;20041;-63
2020/12/08 03:31:40;;;;;;;20.52;12.82;;;;;;;4.28;77.09;99317.91;5032793;28;20516;-63
2020/12/08 03:34:07;;;;;;;20.13;12.30;;;;;;;4.37;77.44;99325.06;5016471;28;20049;-63
2020/12/08 03:36:37;;;;;;;19.73;11.95;;;;;;;4.70;76.54;99322.94;5015958;28;20500;-62
2020/12/08 03:39:05;;;;;;;20.77;11.88;;;;;;;4.93;75.28;99321.84;5016202;28;20549;-63
2020/12/08 03:41:36;;;;;;;23.05;11.98;;;;;;;4.92;74.69;99320.19;5015521;28;20053;-62
2020/12/08 03:44:08;;;;;;;20.25;12.15;;;;;;;4.85;74.81;99328.00;5016009;28;20054;-63
2020/12/08 03:46:36;;;;;;;20.88;12.23;;;;;;;4.60;76.10;99336.81;5032634;28;20056;-64
2020/12/08 03:49:04;;;;;;;20.85;12.05;;;;;;;4.70;75.29;99336.56;5015949;28;20050;-63
2020/12/08 03:51:32;;;;;;;22.30;13.05;;;;;;;4.58;75.30;99339.81;5016284;28;20045;-63
2020/12/08 03:54:06;;;;;;;23.98;13.18;;;;;;;4.63;75.08;99340.81;5016460;28;20049;-64
2020/12/08 03:56:44;;;;;;;19.77;12.18;;;;;;;4.43;75.75;99342.91;5016484;28;20393;-64
2020/12/08 03:59:19;;;;;;;18.58;11.38;;;;;;;4.27;76.38;99338.88;5034728;28;20053;-62
2020/12/08 04:01:55;;;;;;;20.48;12.60;;;;;;;4.61;75.57;99341.13;5016152;28;20409;-66
2020/12/08 04:04:23;;;;;;;20.27;12.93;;;;;;;4.63;75.20;99343.56;5000031;28;20057;-65
2020/12/08 04:06:50;;;;;;;23.08;13.38;;;;;;;4.27;76.29;99347.06;5016189;28;20061;-63
2020/12/08 04:09:17;;;;;;;22.92;12.50;;;;;;;4.08;77.59;99349.09;5015486;28;20052;-65
2020/12/08 04:11:45;;;;;;;25.02;12.80;;;;;;;4.14;77.18;99345.19;5033653;28;20123;-67
2020/12/08 04:14:14;;;;;;;22.58;13.10;;;;;;;4.39;76.21;99347.34;5015694;28;20049;-63
2020/12/08 04:16:44;;;;;;;25.50;13.43;;;;;;;4.05;77.05;99357.06;5015488;28;20050;-64
2020/12/08 04:19:16;;;;;;;23.02;12.80;;;;;;;4.37;76.40;99354.22;5015787;28;20045;-66
2020/12/08 04:21:45;;;;;;;24.05;13.35;;;;;;;4.46;76.06;99355.91;5015127;28;20056;-62
2020/12/08 04:24:28;;;;;;;23.75;14.68;;;;;;;4.21;76.54;99359.19;5015613;28;20508;-63
2020/12/08 04:26:56;;;;;;;24.98;14.27;;;;;;;4.36;76.79;99361.59;5015348;28;20053;-62
2020/12/08 04:29:33;;;;;;;25.38;15.35;;;;;;;4.10;77.90;99362.41;5014411;28;20056;-63
2020/12/08 04:32:00;;;;;;;25.35;15.20;;;;;;;4.10;77.80;99363.22;5015374;28;20053;-63
2020/12/08 04:34:27;;;;;;;25.00;15.38;;;;;;;4.13;77.67;99370.00;5015589;28;20052;-62
2020/12/08 04:36:54;;;;;;;26.98;15.50;;;;;;;4.25;77.26;99381.19;5014511;28;20486;-62
2020/12/08 04:39:21;;;;;;;26.08;16.45;;;;;;;4.03;77.90;99381.91;5032783;28;20056;-67
2020/12/08 04:41:51;;;;;;;25.42;15.40;;;;;;;4.11;77.77;99373.03;5031938;28;20053;-66
2020/12/08 04:44:19;;;;;;;26.80;15.20;;;;;;;3.97;78.44;99390.50;5031998;28;20049;-68
2020/12/08 04:46:54;;;;;;;32.55;16.30;;;;;;;4.07;78.18;99380.19;5014424;28;20061;-63
2020/12/08 04:49:22;;;;;;;28.33;16.75;;;;;;;3.95;78.12;99396.25;5028045;28;20053;-62
2020/12/08 04:51:49;;;;;;;27.27;15.98;;;;;;;4.27;77.64;99396.13;5033037;28;20104;-63
2020/12/08 04:54:16;;;;;;;27.20;14.98;;;;;;;4.47;76.00;99386.72;5031831;28;20046;-62
2020/12/08 04:56:44;;;;;;;27.90;16.85;;;;;;;4.37;76.63;99401.38;5032220;28;20075;-60
2020/12/08 04:59:21;;;;;;;26.27;15.88;;;;;;;4.29;76.54;99403.97;5032414;28;20049;-62
2020/12/08 05:01:49;;;;;;;28.42;16.60;;;;;;;4.22;77.53;99407.13;5031721;28;20401;-62
2020/12/08 05:04:24;;;;;;;26.75;15.50;;;;;;;4.05;77.19;99406.94;5031508;28;20056;-63
2020/12/08 05:07:01;;;;;;;23.73;15.50;;;;;;;4.09;77.45;99407.13;5033847;28;20045;-64
2020/12/08 05:09:28;;;;;;;27.70;15.77;;;;;;;4.25;77.05;99411.97;5032754;28;20049;-64
2020/12/08 05:11:59;;;;;;;26.40;15.30;;;;;;;4.12;77.14;99414.69;5032919;28;20389;-63
2020/12/08 05:14:26;;;;;;;24.67;15.70;;;;;;;4.25;77.05;99422.88;5031689;28;20050;-62
2020/12/08 05:17:03;;;;;;;31.85;17.80;;;;;;;4.28;77.11;99427.72;5032502;28;20396;-61
2020/12/08 05:19:30;;;;;;;28.85;16.90;;;;;;;4.39;77.43;99431.06;5031913;28;20049;-63
2020/12/08 05:21:59;;;;;;;30.95;18.77;;;;;;;4.05;77.80;99425.19;5031523;28;20137;-62
2020/12/08 05:24:27;;;;;;;33.88;19.33;;;;;;;4.21;77.31;99438.22;5031187;28;20057;-62
2020/12/08 05:26:58;;;;;;;29.50;18.85;;;;;;;4.23;77.41;99432.47;5032360;28;20083;-62
2020/12/08 05:29:27;;;;;;;30.63;18.00;;;;;;;4.08;77.64;99439.00;5031638;28;20064;-62
2020/12/08 05:31:55;;;;;;;32.70;18.67;;;;;;;3.88;78.21;99438.59;5031421;28;20050;-67
2020/12/08 05:34:23;;;;;;;29.83;17.95;;;;;;;3.88;78.51;99439.41;5014468;28;20049;-67
2020/12/08 05:36:53;;;;;;;32.13;19.27;;;;;;;3.98;78.20;99447.38;5032123;28;20050;-66
2020/12/08 05:39:22;;;;;;;32.70;18.13;;;;;;;4.04;77.92;99446.19;5031056;28;20389;-62
2020/12/08 05:41:50;;;;;;;30.67;17.73;;;;;;;4.14;77.33;99451.44;5031592;28;20057;-62
2020/12/08 05:44:23;;;;;;;29.90;17.60;;;;;;;4.02;76.94;99450.31;5031105;28;20060;-61
2020/12/08 05:46:52;;;;;;;30.50;17.25;;;;;;;4.00;77.93;99455.25;5031494;28;20065;-63
2020/12/08 05:49:19;;;;;;;28.80;17.70;;;;;;;4.04;77.19;99462.53;5013595;28;20390;-64
2020/12/08 05:51:51;;;;;;;31.48;18.27;;;;;;;4.23;77.58;99463.25;5030973;28;20493;-65
2020/12/08 05:54:20;;;;;;;28.83;17.45;;;;;;;4.22;76.82;99469.81;5014321;28;20057;-63
2020/12/08 05:56:48;;;;;;;30.10;17.33;;;;;;;4.09;76.95;99473.34;5031914;28;20052;-64
2020/12/08 05:59:25;;;;;;;31.08;18.45;;;;;;;4.22;76.51;99477.97;5031615;28;20441;-64
2020/12/08 06:01:52;;;;;;;33.67;18.95;;;;;;;3.97;77.85;99478.47;5031007;28;20057;-63
2020/12/08 06:04:19;;;;;;;32.80;19.35;;;;;;;3.87;78.57;99484.09;5031592;28;20049;-62
2020/12/08 06:06:51;;;;;;;39.08;19.70;;;;;;;3.96;78.47;99481.47;5014186;28;20485;-64
2020/12/08 06:09:29;;;;;;;32.47;19.33;;;;;;;4.20;77.91;99495.75;4995631;28;20490;-64
2020/12/08 06:11:57;;;;;;;34.60;19.35;;;;;;;4.42;76.70;99502.13;5031015;28;20045;-65
2020/12/08 06:14:43;;;;;;;32.75;19.73;;;;;;;3.91;78.12;99501.44;5031112;28;20061;-63
2020/12/08 06:17:09;;;;;;;33.60;18.85;;;;;;;3.89;77.88;99503.66;5030396;28;20052;-64
2020/12/08 06:19:36;;;;;;;31.70;20.45;;;;;;;3.97;78.07;99507.63;5030408;28;20061;-64
2020/12/08 06:22:12;;;;;;;33.38;19.98;;;;;;;4.24;77.13;99508.47;5030823;28;20389;-63
2020/12/08 06:24:52;;;;;;;36.05;20.58;;;;;;;4.03;77.50;99509.13;5031198;28;20056;-62
2020/12/08 06:27:23;;;;;;;33.35;19.52;;;;;;;3.85;77.93;99508.13;5014113;28;20500;-64
2020/12/08 06:29:55;;;;;;;31.70;17.77;;;;;;;3.65;78.96;99524.78;5031158;28;20060;-63
2020/12/08 06:32:31;;;;;;;31.63;18.73;;;;;;;3.76;79.08;99523.50;5031003;28;20041;-64
2020/12/08 06:35:15;;;;;;;37.05;19.90;;;;;;;3.72;78.79;99529.84;5031800;28;20057;-63
2020/12/08 06:37:51;;;;;;;32.55;18.92;;;;;;;3.91;77.85;99522.44;5031475;28;20053;-62
2020/12/08 06:40:19;;;;;;;31.35;19.35;;;;;;;4.11;77.45;99522.91;5030940;28;20060;-62
2020/12/08 06:42:47;;;;;;;31.77;18.73;;;;;;;3.77;78.18;99535.19;5033022;28;20049;-63
2020/12/08 06:45:16;;;;;;;30.02;19.13;;;;;;;3.57;79.44;99536.34;5051489;28;20049;-61
2020/12/08 06:47:44;;;;;;;34.60;19.83;;;;;;;3.59;79.25;99550.47;5042165;28;20049;-65
2020/12/08 06:50:24;;;;;;;34.72;21.35;;;;;;;3.40;79.78;99544.22;5031324;28;20050;-64
2020/12/08 06:52:58;;;;;;;33.75;18.77;;;;;;;3.78;78.99;99545.00;5029950;28;20326;-63
2020/12/08 06:55:27;;;;;;;30.88;18.85;;;;;;;3.94;77.73;99540.91;5032418;28;20516;-66
2020/12/08 06:58:04;;;;;;;32.72;19.35;;;;;;;3.77;78.07;99557.78;5033639;28;20053;-66
2020/12/08 07:00:31;;;;;;;34.03;20.13;;;;;;;3.67;78.18;99559.88;5033222;28;20041;-65
2020/12/08 07:03:02;;;;;;;33.00;19.15;;;;;;;3.69;78.53;99571.28;5033513;28;20050;-63
2020/12/08 07:05:30;;;;;;;33.50;19.75;;;;;;;3.60;78.90;99562.97;5020848;28;20044;-66
2020/12/08 07:07:59;;;;;;;31.30;20.45;;;;;;;3.58;79.01;99573.34;5031462;28;20053;-68
2020/12/08 07:10:27;;;;;;;31.42;18.10;;;;;;;3.81;78.49;99575.16;4999494;28;20382;-69
2020/12/08 07:12:55;;;;;;;33.13;19.23;;;;;;;3.97;77.81;99575.72;5015432;28;20050;-68
2020/12/08 07:15:26;;;;;;;29.05;18.80;;;;;;;3.85;78.18;99580.84;5036329;28;20516;-67
2020/12/08 07:17:57;;;;;;;31.33;18.73;;;;;;;3.79;77.96;99582.00;5033461;28;20489;-65
2020/12/08 07:20:25;;;;;;;30.48;19.98;;;;;;;4.01;77.77;99582.19;5033691;28;20041;-70
2020/12/08 07:22:53;;;;;;;29.63;19.38;;;;;;;3.78;77.84;99585.84;5034001;28;20489;-63
2020/12/08 07:25:22;;;;;;;31.42;19.33;;;;;;;3.97;78.08;99589.34;5039631;28;20049;-65
2020/12/08 07:27:52;;;;;;;33.47;19.95;;;;;;;3.85;77.96;99589.00;5033573;28;20049;-65
2020/12/08 07:30:25;;;;;;;34.50;19.58;;;;;;;3.79;78.47;99595.63;5016046;28;20515;-65
2020/12/08 07:32:54;;;;;;;30.02;18.75;;;;;;;3.99;77.88;99596.09;5033951;28;20045;-66
2020/12/08 07:35:28;;;;;;;34.22;19.48;;;;;;;4.30;76.60;99607.31;5033376;28;20053;-65
2020/12/08 07:37:57;;;;;;;32.20;17.75;;;;;;;3.50;77.54;99625.75;5031337;28;20054;-67
2020/12/08 07:40:38;;;;;;;28.95;17.83;;;;;;;3.23;79.57;99622.81;5032937;28;20041;-65
2020/12/08 07:43:06;;;;;;;30.17;17.92;;;;;;;3.05;79.97;99629.06;5034394;28;20060;-62
2020/12/08 07:45:44;;;;;;;33.88;19.30;;;;;;;3.00;80.36;99638.06;5034832;28;20061;-62
2020/12/08 07:48:17;;;;;;;31.33;18.08;;;;;;;2.97;81.12;99630.50;5032903;28;20053;-61
2020/12/08 07:50:44;;;;;;;34.80;18.55;;;;;;;3.14;80.51;99639.00;5021191;28;20499;-61
2020/12/08 07:53:12;;;;;;;32.03;18.65;;;;;;;3.46;79.58;99638.31;5032683;28;20053;-63
2020/12/08 07:55:43;;;;;;;30.13;18.77;;;;;;;3.75;78.47;99647.13;5033509;28;20053;-66
2020/12/08 07:58:10;;;;;;;30.38;18.92;;;;;;;3.60;78.89;99647.38;5043345;28;20045;-64
2020/12/08 08:00:38;;;;;;;30.98;18.00;;;;;;;3.91;77.62;99648.53;5031202;28;21923;-63
2020/12/08 08:03:05;;;;;;;32.97;19.50;;;;;;;3.60;78.32;99658.25;5015880;28;20057;-64
2020/12/08 08:05:32;;;;;;;33.45;20.20;;;;;;;3.44;79.42;99657.66;5011151;28;20052;-65
2020/12/08 08:07:59;;;;;;;30.75;18.00;;;;;;;3.42;79.26;99673.47;5033158;28;20053;-64
2020/12/08 08:10:26;;;;;;;31.58;19.05;;;;;;;3.39;79.05;99675.97;5032713;28;20049;-65
2020/12/08 08:12:53;;;;;;;30.35;18.83;;;;;;;3.63;78.71;99679.44;5015934;28;20516;-66
2020/12/08 08:15:20;;;;;;;37.00;19.23;;;;;;;3.77;77.85;99672.16;5033688;28;20496;-68
2020/12/08 08:17:47;;;;;;;36.15;19.10;;;;;;;4.02;77.28;99681.88;5031777;28;20053;-65
2020/12/08 08:20:14;;;;;;;30.45;19.25;;;;;;;3.94;76.80;99677.91;5031324;28;20050;-67
2020/12/08 08:22:41;;;;;;;33.47;18.67;;;;;;;4.00;76.88;99687.63;4998274;28;20057;-68
2020/12/08 08:25:08;;;;;;;31.15;18.88;;;;;;;3.63;77.78;99687.63;5033104;28;20409;-69
2020/12/08 08:27:35;;;;;;;31.80;19.23;;;;;;;3.68;78.09;99684.81;5030694;28;20041;-65
2020/12/08 08:30:03;;;;;;;34.03;19.02;;;;;;;3.74;77.70;99686.38;5032598;28;20061;-68
2020/12/08 08:32:30;;;;;;;32.40;18.98;;;;;;;3.99;77.35;99694.16;5013511;28;20056;-68
2020/12/08 08:34:58;;;;;;;29.17;17.35;;;;;;;3.84;76.92;99699.84;5032969;28;20050;-67
2020/12/08 08:37:25;;;;;;;29.55;17.60;;;;;;;3.66;77.55;99702.56;5015888;28;20049;-68
2020/12/08 08:39:51;;;;;;;32.95;17.35;;;;;;;3.54;78.45;99711.16;5031640;28;20057;-67
2020/12/08 08:42:18;;;;;;;29.77;17.63;;;;;;;3.65;77.97;99711.81;5030294;28;20049;-67
2020/12/08 08:44:45;;;;;;;29.95;18.73;;;;;;;3.79;79.97;99719.00;5029953;28;21599;-62
2020/12/08 08:47:12;;;;;;;31.92;19.13;;;;;;;3.93;79.30;99714.44;5030498;28;20050;-64
2020/12/08 08:49:39;;;;;;;28.35;18.67;;;;;;;4.06;78.54;99724.59;5031679;28;20045;-62
2020/12/08 08:52:06;;;;;;;30.58;18.67;;;;;;;4.11;76.48;99718.28;5015977;28;20048;-61
2020/12/08 08:54:33;;;;;;;29.88;18.58;;;;;;;4.66;77.67;99725.53;5030756;28;20049;-62
2020/12/08 08:57:00;;;;;;;30.88;17.15;;;;;;;5.00;75.75;99730.69;5027341;28;20049;-62
2020/12/08 08:59:27;;;;;;;27.52;17.10;;;;;;;4.89;74.57;99732.78;5012596;28;20049;-66
2020/12/08 09:01:54;;;;;;;27.63;16.70;;;;;;;5.01;73.61;99729.56;5030416;28;20072;-63
2020/12/08 09:04:21;;;;;;;31.23;18.73;;;;;;;4.59;74.04;99739.56;5012991;28;20038;-62
2020/12/08 09:06:48;;;;;;;30.05;17.65;;;;;;;4.27;74.90;99746.91;5028405;28;20057;-62
2020/12/08 09:09:15;;;;;;;27.13;16.70;;;;;;;4.42;74.88;99743.94;5028368;28;20053;-62
2020/12/08 09:11:42;;;;;;;30.77;17.35;;;;;;;4.19;75.45;99744.84;5031515;28;20397;-63
2020/12/08 09:14:09;;;;;;;26.35;17.13;;;;;;;4.23;75.19;99754.88;5023365;28;20056;-63
2020/12/08 09:16:38;;;;;;;29.75;17.90;;;;;;;3.87;76.86;99756.47;5028294;28;20072;-63
2020/12/08 09:19:05;;;;;;;29.33;17.80;;;;;;;3.81;77.04;99751.38;5010884;28;20060;-62
2020/12/08 09:21:32;;;;;;;31.20;16.85;;;;;;;3.94;76.20;99756.13;5030774;28;20045;-63
2020/12/08 09:23:59;;;;;;;30.75;18.02;;;;;;;3.95;76.18;99764.00;5019624;28;20401;-63
2020/12/08 09:26:26;;;;;;;31.17;18.55;;;;;;;3.78;76.64;99771.84;5030590;28;20386;-62
2020/12/08 09:28:53;;;;;;;32.47;18.10;;;;;;;4.14;76.03;99767.53;5030379;28;20524;-62
2020/12/08 09:31:20;;;;;;;26.80;16.20;;;;;;;4.42;75.49;99768.47;5031153;28;20067;-63
2020/12/08 09:33:51;;;;;;;27.15;17.38;;;;;;;4.18;75.46;99771.31;5031026;28;20046;-63
2020/12/08 09:36:18;;;;;;;31.58;18.92;;;;;;;4.13;76.38;99767.84;5032906;28;20041;-63
2020/12/08 09:38:44;;;;;;;27.98;18.52;;;;;;;4.44;75.00;99771.72;5031235;28;20061;-62
2020/12/08 09:41:12;;;;;;;27.95;17.48;;;;;;;4.50;74.87;99770.53;5031586;28;20049;-63
2020/12/08 09:43:39;;;;;;;30.48;17.95;;;;;;;4.56;74.10;99781.09;5030347;28;20053;-61
2020/12/08 09:46:05;;;;;;;33.13;19.55;;;;;;;4.55;73.70;99779.44;5031575;28;20045;-62
2020/12/08 09:48:32;;;;;;;33.50;19.73;;;;;;;4.31;74.09;99784.19;5029629;28;20060;-61
2020/12/08 09:50:59;;;;;;;30.85;19.20;;;;;;;4.09;75.16;99788.59;5030039;28;20524;-63
2020/12/08 09:53:26;;;;;;;31.63;19.08;;;;;;;4.31;75.22;99786.91;5031098;28;20046;-63
2020/12/08 09:55:53;;;;;;;36.47;21.33;;;;;;;3.96;75.84;99789.31;5028134;28;20053;-65
2020/12/08 09:58:20;;;;;;;29.73;19.10;;;;;;;4.13;75.40;99787.69;5029761;28;20516;-64
2020/12/08 10:00:47;;;;;;;33.13;18.77;;;;;;;3.85;76.04;99796.81;5029685;28;20061;-62
2020/12/08 10:03:13;;;;;;;31.77;20.55;;;;;;;4.00;76.66;99793.06;5030336;28;20046;-60
2020/12/08 10:05:40;;;;;;;35.45;19.77;;;;;;;4.17;75.68;99793.38;5025624;28;20470;-62
2020/12/08 10:08:07;;;;;;;34.38;19.77;;;;;;;4.19;74.97;99794.72;5016613;28;20054;-60
2020/12/08 10:10:34;;;;;;;33.13;20.52;;;;;;;4.24;75.36;99791.91;5011019;28;20346;-62
2020/12/08 10:13:01;;;;;;;35.53;21.35;;;;;;;4.56;73.67;99792.00;5028471;28;20064;-64
2020/12/08 10:15:28;;;;;;;35.90;20.73;;;;;;;4.31;74.44;99799.72;5013814;28;20117;-65
2020/12/08 10:17:55;;;;;;;32.95;19.08;;;;;;;4.12;75.66;99807.06;5031873;28;20049;-64
2020/12/08 10:20:22;;;;;;;39.25;19.88;;;;;;;3.82;76.39;99804.75;5030167;28;20416;-62
2020/12/08 10:22:49;;;;;;;35.90;19.90;;;;;;;3.85;76.63;99815.06;5031721;28;20049;-68
2020/12/08 10:25:16;;;;;;;32.10;19.23;;;;;;;3.74;77.64;99816.28;5031951;28;20065;-64
2020/12/08 10:27:42;;;;;;;35.90;19.40;;;;;;;4.08;76.57;99823.19;5027045;28;20045;-65
2020/12/08 10:30:10;;;;;;;33.20;20.65;;;;;;;4.30;74.79;99814.47;5037410;28;20041;-65
2020/12/08 10:32:37;;;;;;;35.55;20.35;;;;;;;3.98;76.06;99822.50;5032806;28;20052;-65
2020/12/08 10:35:05;;;;;;;32.28;18.90;;;;;;;3.72;76.49;99823.94;5033106;28;20052;-66
2020/12/08 10:37:32;;;;;;;30.75;18.45;;;;;;;3.84;75.80;99824.31;5032676;28;20516;-66
2020/12/08 10:39:59;;;;;;;30.25;18.60;;;;;;;3.99;75.71;99822.22;5033455;28;20452;-63
2020/12/08 10:42:26;;;;;;;32.67;19.27;;;;;;;4.11;75.89;99824.53;5033362;28;20041;-63
2020/12/08 10:44:52;;;;;;;31.95;19.70;;;;;;;4.39;75.22;99820.88;5019836;28;20053;-63
2020/12/08 10:47:20;;;;;;;41.25;19.38;;;;;;;4.49;74.79;99823.44;5024769;28;20052;-64
2020/12/08 10:49:47;;;;;;;34.40;19.92;;;;;;;4.42;74.75;99821.09;5033917;28;20065;-63
2020/12/08 10:52:14;;;;;;;33.60;19.63;;;;;;;4.35;74.71;99823.38;5010310;28;20050;-64
2020/12/08 10:54:40;;;;;;;34.80;19.23;;;;;;;4.40;76.00;99826.03;5031204;28;20515;-65
2020/12/08 10:57:08;;;;;;;33.05;18.83;;;;;;;4.54;73.76;99831.56;5030018;28;20058;-65
2020/12/08 10:59:35;;;;;;;32.33;18.13;;;;;;;4.32;74.74;99837.59;5030598;28;20413;-68
2020/12/08 11:02:02;;;;;;;31.48;18.58;;;;;;;4.21;74.11;99830.66;5034206;28;20056;-63
2020/12/08 11:04:29;;;;;;;29.70;18.20;;;;;;;4.45;74.07;99836.88;5034110;28;20052;-64
2020/12/08 11:06:57;;;;;;;28.58;18.95;;;;;;;4.60;73.39;99835.84;5016826;28;20045;-62
2020/12/08 11:09:25;;;;;;;32.60;19.85;;;;;;;4.61;73.54;99832.00;5032745;28;20056;-63
2020/12/08 11:11:52;;;;;;;33.97;20.45;;;;;;;4.50;75.23;99835.97;5007312;28;20048;-62
2020/12/08 11:14:20;;;;;;;37.20;20.83;;;;;;;4.64;75.79;99836.06;5029351;28;20045;-61
2020/12/08 11:16:47;;;;;;;32.83;19.80;;;;;;;5.09;75.57;99838.84;5031833;28;20060;-61
2020/12/08 11:19:30;;;;;;;38.17;21.42;;;;;;;5.41;74.47;99838.84;5031285;28;20400;-62
2020/12/08 11:22:07;;;;;;;38.05;19.83;;;;;;;5.17;72.34;99846.38;5014152;28;20046;-64
2020/12/08 11:24:53;;;;;;;35.47;21.35;;;;;;;4.50;75.36;99847.69;5010212;28;20500;-63
2020/12/08 11:27:22;;;;;;;34.97;21.15;;;;;;;4.74;74.44;99852.25;5019395;28;20397;-63
2020/12/08 11:29:53;;;;;;;39.13;20.88;;;;;;;4.69;75.20;99853.13;5031632;28;20121;-62
2020/12/08 11:32:23;;;;;;;;;;;;;;;4.70;75.24;99851.22;5031776;28;20054;-62
2020/12/08 11:34:53;;;;;;;34.15;21.42;;;;;;;4.52;74.91;99853.66;5032211;28;19928;-65